createdAt,value
2022-09-01T00:00:01.754Z,53.82
2022-09-01T00:02:09.527Z,53.81
2022-09-01T00:04:13.402Z,53.85
2022-09-01T00:06:22.420Z,53.80
2022-09-01T00:08:25.558Z,53.42
2022-09-01T00:10:28.590Z,53.67
2022-09-01T00:12:31.796Z,53.13
2022-09-01T00:14:41.571Z,53.27
2022-09-01T00:16:44.523Z,53.69
2022-09-01T00:18:50.663Z,53.66
2022-09-01T00:20:55.765Z,53.50
2022-09-01T00:23:00.525Z,53.99
2022-09-01T00:25:03.526Z,53.89
2022-09-01T00:27:06.433Z,53.69
2022-09-01T00:29:09.371Z,53.42
2022-09-01T00:31:15.134Z,53.64
2022-09-01T00:33:18.132Z,53.78
2022-09-01T00:35:21.288Z,53.99
2022-09-01T00:37:24.242Z,53.74
2022-09-01T00:39:27.200Z,53.91
2022-09-01T00:41:32.419Z,54.06
2022-09-01T00:43:41.442Z,53.87
2022-09-01T00:45:44.518Z,54.54
2022-09-01T00:47:48.841Z,54.59
2022-09-01T00:49:53.057Z,55.26
2022-09-01T00:51:59.894Z,55.50
2022-09-01T00:54:03.497Z,55.46
2022-09-01T00:56:07.917Z,55.76
2022-09-01T00:58:18.406Z,56.29
2022-09-01T01:00:25.787Z,56.66
2022-09-01T01:02:28.764Z,56.20
2022-09-01T01:04:33.101Z,56.87
2022-09-01T01:06:35.932Z,57.06
2022-09-01T01:08:43.233Z,57.24
2022-09-01T01:10:46.283Z,57.26
2022-09-01T01:12:52.594Z,57.37
2022-09-01T01:14:56.971Z,57.14
2022-09-01T01:17:01.571Z,56.14
2022-09-01T01:19:05.518Z,56.06
2022-09-01T01:21:33.970Z,56.40
2022-09-01T01:23:42.081Z,56.67
2022-09-01T01:25:50.028Z,56.13
2022-09-01T01:27:53.626Z,56.42
2022-09-01T01:29:57.468Z,55.99
2022-09-01T01:32:00.614Z,56.33
2022-09-01T01:34:06.212Z,56.52
2022-09-01T01:36:13.230Z,56.72
2022-09-01T01:38:16.344Z,56.66
2022-09-01T01:40:22.754Z,56.86
2022-09-01T01:42:28.361Z,57.33
2022-09-01T01:44:32.026Z,56.78
2022-09-01T01:46:44.029Z,57.17
2022-09-01T01:48:49.904Z,57.17
2022-09-01T01:50:54.934Z,57.47
2022-09-01T01:53:00.036Z,57.56
2022-09-01T01:55:05.348Z,57.80
2022-09-01T01:57:08.575Z,57.58
2022-09-01T01:59:15.415Z,57.80
2022-09-01T02:01:22.064Z,57.86
2022-09-01T02:03:38.278Z,57.79
2022-09-01T02:05:41.291Z,58.38
2022-09-01T02:07:44.222Z,57.96
2022-09-01T02:09:50.123Z,58.21
2022-09-01T02:11:57.053Z,58.16
2022-09-01T02:14:00.805Z,57.78
2022-09-01T02:16:13.010Z,58.07
2022-09-01T02:18:20.174Z,58.18
2022-09-01T02:20:24.858Z,57.85
2022-09-01T02:22:28.460Z,58.41
2022-09-01T02:24:31.854Z,58.09
2022-09-01T02:26:39.497Z,58.50
2022-09-01T02:28:43.134Z,58.67
2022-09-01T02:30:52.088Z,58.59
2022-09-01T02:32:58.663Z,59.17
2022-09-01T02:35:02.575Z,59.16
2022-09-01T02:37:05.487Z,59.17
2022-09-01T02:39:08.459Z,59.13
2022-09-01T02:41:12.003Z,59.11
2022-09-01T02:43:19.537Z,59.49
2022-09-01T02:45:24.046Z,59.07
2022-09-01T02:47:28.513Z,59.60
2022-09-01T02:49:35.905Z,59.66
2022-09-01T02:51:39.469Z,59.41
2022-09-01T02:53:43.485Z,59.38
2022-09-01T02:55:46.756Z,59.74
2022-09-01T02:57:50.874Z,60.05
2022-09-01T02:59:58.914Z,60.12
2022-09-01T03:02:02.607Z,60.49
2022-09-01T03:04:08.084Z,60.51
2022-09-01T03:06:12.778Z,61.46
2022-09-01T03:08:16.419Z,61.25
2022-09-01T03:10:21.416Z,61.46
2022-09-01T03:12:28.220Z,61.23
2022-09-01T03:14:31.963Z,61.22
2022-09-01T03:16:36.269Z,60.71
2022-09-01T03:18:40.097Z,61.34
2022-09-01T03:20:46.364Z,61.70
2022-09-01T03:22:51.791Z,61.88
2022-09-01T03:24:56.348Z,61.77
2022-09-01T03:27:02.373Z,62.01
2022-09-01T03:29:06.328Z,62.27
2022-09-01T03:31:09.907Z,62.68
2022-09-01T03:33:13.308Z,62.75
2022-09-01T03:35:17.518Z,62.46
2022-09-01T03:37:20.860Z,62.54
2022-09-01T03:39:25.130Z,62.50
2022-09-01T03:41:30.759Z,62.83
2022-09-01T03:43:37.677Z,62.68
2022-09-01T03:45:48.848Z,62.59
2022-09-01T03:47:52.699Z,62.79
2022-09-01T03:49:56.884Z,62.37
2022-09-01T03:52:01.231Z,61.86
2022-09-01T03:54:05.034Z,61.08
2022-09-01T03:56:11.422Z,60.57
2022-09-01T03:58:19.012Z,60.06
2022-09-01T04:00:25.213Z,59.83
2022-09-01T04:02:30.610Z,59.05
2022-09-01T04:04:33.860Z,59.09
2022-09-01T04:06:38.373Z,59.32
2022-09-01T04:08:41.321Z,58.33
2022-09-01T04:10:49.438Z,57.94
2022-09-01T04:12:59.177Z,58.04
2022-09-01T04:15:02.071Z,58.69
2022-09-01T04:17:25.466Z,58.73
2022-09-01T04:19:36.672Z,59.79
2022-09-01T04:21:39.918Z,60.18
2022-09-01T04:23:43.077Z,60.62
2022-09-01T04:25:46.690Z,61.13
2022-09-01T04:27:50.440Z,61.58
2022-09-01T04:29:57.783Z,61.92
2022-09-01T04:32:07.606Z,61.71
2022-09-01T04:34:13.805Z,62.03
2022-09-01T04:36:23.635Z,62.72
2022-09-01T04:38:29.562Z,62.75
2022-09-01T04:40:32.771Z,62.96
2022-09-01T04:42:35.738Z,62.40
2022-09-01T04:44:40.318Z,62.19
2022-09-01T04:46:46.442Z,62.21
2022-09-01T04:48:53.299Z,62.00
2022-09-01T04:50:58.264Z,62.27
2022-09-01T04:53:06.748Z,62.12
2022-09-01T04:55:20.979Z,62.20
2022-09-01T04:57:29.188Z,61.95
2022-09-01T04:59:32.536Z,61.94
2022-09-01T05:01:43.301Z,62.23
2022-09-01T05:03:56.421Z,61.83
2022-09-01T05:06:17.594Z,61.62
2022-09-01T05:08:25.325Z,61.72
2022-09-01T05:10:34.594Z,61.44
2022-09-01T05:12:52.384Z,61.47
2022-09-01T05:14:55.977Z,61.58
2022-09-01T05:17:00.263Z,61.51
2022-09-01T05:19:06.373Z,61.41
2022-09-01T05:21:11.733Z,61.10
2022-09-01T05:23:17.772Z,61.30
2022-09-01T05:25:20.900Z,61.47
2022-09-01T05:27:23.876Z,61.29
2022-09-01T05:29:27.626Z,61.42
2022-09-01T05:31:34.765Z,61.70
2022-09-01T05:33:39.713Z,61.50
2022-09-01T05:35:53.321Z,61.65
2022-09-01T05:37:59.535Z,61.93
2022-09-01T05:40:02.733Z,61.86
2022-09-01T05:42:07.978Z,61.39
2022-09-01T05:44:15.555Z,61.07
2022-09-01T05:46:22.805Z,61.20
2022-09-01T05:48:26.296Z,61.13
2022-09-01T05:50:29.220Z,60.75
2022-09-01T05:52:35.095Z,60.34
2022-09-01T05:54:37.953Z,60.53
2022-09-01T05:56:43.876Z,60.89
2022-09-01T06:01:16.823Z,60.92
2022-09-01T06:03:21.187Z,60.86
2022-09-01T06:05:26.904Z,60.68
2022-09-01T06:07:30.835Z,60.92
2022-09-01T06:09:40.423Z,60.41
2022-09-01T06:11:43.313Z,60.42
2022-09-01T06:13:50.540Z,60.30
2022-09-01T06:15:58.285Z,59.83
2022-09-01T06:18:01.778Z,60.19
2022-09-01T06:20:10.474Z,60.32
2022-09-01T06:22:14.430Z,60.06
2022-09-01T06:24:18.041Z,60.60
2022-09-01T06:26:27.074Z,60.00
2022-09-01T06:28:30.836Z,59.61
2022-09-01T06:30:36.356Z,60.19
2022-09-01T06:32:44.796Z,60.29
2022-09-01T06:34:50.241Z,60.09
2022-09-01T06:36:53.546Z,59.93
2022-09-01T06:38:57.375Z,59.54
2022-09-01T06:41:04.155Z,59.54
2022-09-01T06:43:09.139Z,59.46
2022-09-01T06:45:16.371Z,59.25
2022-09-01T06:47:19.641Z,59.23
2022-09-01T06:49:32.447Z,58.94
2022-09-01T06:51:36.995Z,58.60
2022-09-01T06:53:40.611Z,58.63
2022-09-01T06:55:50.401Z,59.16
2022-09-01T06:58:13.927Z,59.01
2022-09-01T07:00:20.139Z,59.02
2022-09-01T07:02:27.021Z,58.54
2022-09-01T07:04:53.456Z,58.72
2022-09-01T07:07:53.043Z,58.57
2022-09-01T07:09:47.339Z,58.72
2022-09-01T07:14:32.964Z,59.16
2022-09-01T07:19:06.524Z,59.19
2022-09-01T07:21:38.747Z,59.38
2022-09-01T07:23:46.239Z,59.25
2022-09-01T07:26:04.268Z,58.87
2022-09-01T07:28:15.964Z,59.25
2022-09-01T07:32:47.769Z,58.84
2022-09-01T07:34:52.174Z,59.35
2022-09-01T07:37:17.321Z,59.12
2022-09-01T07:42:56.295Z,58.92
2022-09-01T07:42:56.789Z,59.28
2022-09-01T07:47:52.850Z,58.26
2022-09-01T07:50:37.446Z,58.32
2022-09-01T07:52:23.010Z,58.75
2022-09-01T07:54:33.941Z,58.87
2022-09-01T07:56:40.125Z,59.37
2022-09-01T07:58:44.034Z,59.70
2022-09-01T08:00:49.042Z,58.01
2022-09-01T08:02:57.022Z,58.63
2022-09-01T08:05:01.642Z,58.48
2022-09-01T08:07:05.655Z,58.55
2022-09-01T08:09:11.736Z,58.94
2022-09-01T08:11:21.908Z,59.43
2022-09-01T08:13:38.805Z,59.82
2022-09-01T08:18:08.634Z,59.00
2022-09-01T08:20:14.073Z,59.34
2022-09-01T08:22:35.324Z,59.07
2022-09-01T08:24:46.508Z,59.34
2022-09-01T08:26:49.605Z,59.72
2022-09-01T08:28:56.119Z,59.40
2022-09-01T08:31:14.569Z,59.94
2022-09-01T08:33:18.126Z,59.33
2022-09-01T08:35:24.525Z,59.38
2022-09-01T08:37:29.084Z,59.50
2022-09-01T08:39:32.781Z,59.19
2022-09-01T08:41:47.222Z,58.83
2022-09-01T08:44:04.077Z,59.08
2022-09-01T08:46:14.226Z,58.85
2022-09-01T08:49:09.828Z,59.10
2022-09-01T08:50:52.931Z,58.53
2022-09-01T08:53:10.414Z,58.49
2022-09-01T08:55:22.064Z,58.39
2022-09-01T08:57:32.275Z,58.32
2022-09-01T08:59:54.317Z,57.14
2022-09-01T09:02:27.972Z,56.66
2022-09-01T09:04:51.494Z,56.29
2022-09-01T09:07:06.766Z,56.48
2022-09-01T09:09:10.462Z,55.10
2022-09-01T09:11:50.244Z,55.45
2022-09-01T09:14:07.423Z,55.15
2022-09-01T09:18:39.383Z,55.32
2022-09-01T09:20:45.341Z,55.58
2022-09-01T09:22:49.960Z,55.28
2022-09-01T09:24:56.336Z,55.07
2022-09-01T09:27:00.412Z,55.45
2022-09-01T09:29:03.336Z,55.21
2022-09-01T09:31:32.484Z,54.65
2022-09-01T09:33:51.231Z,55.11
2022-09-01T09:35:57.527Z,54.24
2022-09-01T09:38:22.790Z,54.14
2022-09-01T09:40:27.963Z,53.98
2022-09-01T09:42:34.897Z,54.40
2022-09-01T09:44:44.716Z,54.63
2022-09-01T09:46:48.767Z,54.08
2022-09-01T09:49:08.883Z,54.57
2022-09-01T09:51:18.339Z,54.81
2022-09-01T09:53:32.489Z,54.01
2022-09-01T09:55:35.405Z,53.00
2022-09-01T09:57:41.621Z,52.79
2022-09-01T10:00:01.756Z,53.43
2022-09-01T10:02:21.435Z,52.65
2022-09-01T10:04:37.247Z,52.38
2022-09-01T10:06:42.057Z,52.59
2022-09-01T10:08:47.922Z,53.06
2022-09-01T10:10:57.834Z,52.27
2022-09-01T10:13:02.619Z,52.42
2022-09-01T10:15:12.742Z,52.80
2022-09-01T10:17:20.685Z,51.21
2022-09-01T10:19:24.201Z,50.90
2022-09-01T10:21:32.851Z,50.59
2022-09-01T10:23:38.732Z,50.60
2022-09-01T10:25:47.556Z,50.29
2022-09-01T10:27:58.389Z,50.77
2022-09-01T10:30:21.084Z,50.20
2022-09-01T10:32:36.703Z,49.08
2022-09-01T10:34:42.731Z,48.12
2022-09-01T10:36:54.931Z,47.48
2022-09-01T10:39:05.000Z,46.94
2022-09-01T10:41:14.973Z,46.58
2022-09-01T10:43:36.353Z,46.90
2022-09-01T10:45:41.026Z,46.42
2022-09-01T10:47:44.288Z,46.41
2022-09-01T10:50:09.881Z,47.31
2022-09-01T10:52:14.367Z,47.69
2022-09-01T10:54:55.750Z,47.52
2022-09-01T10:57:03.926Z,47.49
2022-09-01T10:59:31.597Z,46.41
2022-09-01T11:02:28.096Z,47.12
2022-09-01T11:05:04.710Z,46.50
2022-09-01T11:07:56.587Z,45.02
2022-09-01T11:10:34.430Z,45.95
2022-09-01T11:12:48.798Z,45.21
2022-09-01T11:14:54.104Z,44.77
2022-09-01T11:17:14.238Z,45.20
2022-09-01T11:19:38.535Z,44.27
2022-09-01T11:21:41.470Z,43.78
2022-09-01T11:23:46.134Z,43.22
2022-09-01T11:26:19.083Z,43.47
2022-09-01T11:28:39.429Z,42.52
2022-09-01T11:30:52.762Z,43.47
2022-09-01T11:33:03.518Z,43.04
2022-09-01T11:35:15.302Z,43.12
2022-09-01T11:37:22.350Z,43.02
2022-09-01T11:39:33.803Z,43.05
2022-09-01T11:41:55.743Z,43.65
2022-09-01T11:44:04.771Z,42.68
2022-09-01T11:46:17.563Z,42.40
2022-09-01T11:48:20.595Z,43.20
2022-09-01T11:50:27.054Z,42.54
2022-09-01T11:52:32.803Z,41.93
2022-09-01T11:54:42.542Z,41.89
2022-09-01T11:56:45.467Z,41.06
2022-09-01T11:58:48.480Z,41.76
2022-09-01T12:00:52.649Z,40.90
2022-09-01T12:02:56.349Z,41.60
2022-09-01T12:04:59.334Z,40.20
2022-09-01T12:07:05.405Z,39.78
2022-09-01T12:09:13.838Z,40.75
2022-09-01T12:11:22.492Z,41.12
2022-09-01T12:13:25.417Z,39.99
2022-09-01T12:15:28.899Z,40.36
2022-09-01T12:17:33.141Z,40.12
2022-09-01T12:19:38.514Z,41.50
2022-09-01T12:21:43.839Z,40.79
2022-09-01T12:23:46.815Z,40.51
2022-09-01T12:25:49.874Z,39.83
2022-09-01T12:27:53.329Z,40.15
2022-09-01T12:29:56.720Z,40.42
2022-09-01T12:32:01.407Z,39.81
2022-09-01T12:34:05.772Z,40.14
2022-09-01T12:36:15.414Z,40.31
2022-09-01T12:38:30.639Z,40.09
2022-09-01T12:40:35.932Z,39.50
2022-09-01T12:42:41.560Z,40.74
2022-09-01T12:44:51.285Z,41.54
2022-09-01T12:46:55.098Z,41.88
2022-09-01T12:49:19.617Z,41.83
2022-09-01T12:51:29.231Z,42.41
2022-09-01T12:53:36.961Z,42.33
2022-09-01T12:55:47.672Z,41.86
2022-09-01T12:57:53.394Z,40.88
2022-09-01T13:00:15.019Z,40.60
2022-09-01T13:02:28.510Z,41.47
2022-09-01T13:04:34.130Z,41.92
2022-09-01T13:06:37.129Z,42.20
2022-09-01T13:08:39.983Z,42.39
2022-09-01T13:10:45.163Z,42.67
2022-09-01T13:12:48.046Z,42.50
2022-09-01T13:14:51.338Z,42.83
2022-09-01T13:16:55.169Z,43.04
2022-09-01T13:19:18.000Z,43.12
2022-09-01T13:21:22.566Z,42.52
2022-09-01T13:23:25.787Z,42.30
2022-09-01T13:25:28.613Z,41.80
2022-09-01T13:27:31.553Z,41.79
2022-09-01T13:29:34.460Z,41.31
2022-09-01T13:31:37.429Z,39.91
2022-09-01T13:36:42.656Z,40.28
2022-09-01T13:38:28.050Z,40.00
2022-09-01T13:40:31.841Z,39.84
2022-09-01T13:42:34.897Z,39.11
2022-09-01T13:44:37.778Z,39.13
2022-09-01T13:49:41.380Z,39.18
2022-09-01T13:51:28.225Z,38.42
2022-09-01T13:53:32.462Z,38.68
2022-09-01T13:55:39.361Z,38.61
2022-09-01T13:57:42.329Z,38.42
2022-09-01T13:59:45.272Z,38.24
2022-09-01T14:01:48.169Z,38.82
2022-09-01T14:03:52.128Z,37.87
2022-09-01T14:05:56.070Z,37.51
2022-09-01T14:07:59.769Z,38.82
2022-09-01T14:10:05.008Z,39.67
2022-09-01T14:12:08.227Z,39.18
2022-09-01T14:14:11.043Z,38.29
2022-09-01T14:16:15.185Z,38.54
2022-09-01T14:18:19.171Z,38.31
2022-09-01T14:20:24.423Z,38.95
2022-09-01T14:22:27.521Z,39.28
2022-09-01T14:24:30.661Z,38.47
2022-09-01T14:26:35.078Z,38.29
2022-09-01T14:28:38.832Z,38.46
2022-09-01T14:30:43.271Z,37.98
2022-09-01T14:32:46.825Z,38.26
2022-09-01T14:34:50.017Z,37.46
2022-09-01T14:36:57.676Z,37.73
2022-09-01T14:39:00.608Z,37.47
2022-09-01T14:41:03.571Z,38.39
2022-09-01T14:43:10.348Z,38.42
2022-09-01T14:45:15.599Z,38.48
2022-09-01T14:47:19.103Z,38.81
2022-09-01T14:49:22.760Z,38.55
2022-09-01T14:52:10.150Z,38.63
2022-09-01T14:53:53.417Z,38.58
2022-09-01T14:55:57.207Z,39.18
2022-09-01T14:58:00.355Z,39.34
2022-09-01T15:00:10.079Z,39.24
2022-09-01T15:02:13.713Z,39.13
2022-09-01T15:04:16.663Z,39.54
2022-09-01T15:06:21.622Z,39.31
2022-09-01T15:08:24.948Z,39.06
2022-09-01T15:10:28.065Z,39.20
2022-09-01T15:12:31.581Z,39.33
2022-09-01T15:14:34.441Z,39.55
2022-09-01T15:16:41.401Z,39.58
2022-09-01T15:18:44.267Z,40.40
2022-09-01T15:20:46.259Z,39.16
2022-09-01T15:22:49.612Z,39.86
2022-09-01T15:24:52.516Z,39.59
2022-09-01T15:26:55.359Z,38.14
2022-09-01T15:28:58.711Z,37.52
2022-09-01T15:31:01.646Z,38.18
2022-09-01T15:33:06.968Z,38.38
2022-09-01T15:35:10.235Z,39.33
2022-09-01T15:37:13.144Z,38.18
2022-09-01T15:39:16.026Z,37.60
2022-09-01T15:41:20.306Z,37.05
2022-09-01T15:43:23.639Z,37.16
2022-09-01T15:45:28.980Z,37.90
2022-09-01T15:47:32.480Z,36.58
2022-09-01T15:49:37.033Z,37.38
2022-09-01T15:51:41.279Z,37.71
2022-09-01T15:53:43.944Z,37.85
2022-09-01T15:55:49.356Z,38.28
2022-09-01T15:57:54.925Z,38.18
2022-09-01T15:59:58.326Z,38.22
2022-09-01T16:02:01.992Z,38.71
2022-09-01T16:04:06.497Z,38.76
2022-09-01T16:06:10.667Z,39.23
2022-09-01T16:08:21.080Z,39.31
2022-09-01T16:10:24.541Z,40.12
2022-09-01T16:12:28.775Z,39.63
2022-09-01T16:14:31.934Z,39.23
2022-09-01T16:16:46.127Z,39.58
2022-09-01T16:18:57.395Z,39.34
2022-09-01T16:21:04.786Z,39.32
2022-09-01T16:23:17.137Z,39.07
2022-09-01T16:25:26.867Z,39.14
2022-09-01T16:27:35.208Z,38.78
2022-09-01T16:29:45.315Z,39.36
2022-09-01T16:31:51.702Z,39.47
2022-09-01T16:33:57.070Z,39.83
2022-09-01T16:36:08.986Z,39.67
2022-09-01T16:38:28.140Z,40.41
2022-09-01T16:40:42.602Z,39.91
2022-09-01T16:42:58.008Z,39.61
2022-09-01T16:45:11.019Z,39.40
2022-09-01T16:47:34.461Z,39.44
2022-09-01T16:49:45.523Z,39.84
2022-09-01T16:51:57.594Z,39.74
2022-09-01T16:54:14.457Z,39.12
2022-09-01T16:56:25.312Z,39.67
2022-09-01T16:58:37.102Z,38.64
2022-09-01T17:00:51.272Z,39.53
2022-09-01T17:03:07.810Z,39.19
2022-09-01T17:05:22.069Z,39.87
2022-09-01T17:07:30.038Z,39.56
2022-09-01T17:09:40.078Z,39.46
2022-09-01T17:11:49.666Z,39.60
2022-09-01T17:13:54.910Z,39.49
2022-09-01T17:16:07.919Z,39.07
2022-09-01T17:18:22.838Z,39.06
2022-09-01T17:20:30.592Z,39.02
2022-09-01T17:22:36.648Z,39.49
2022-09-01T17:24:43.540Z,40.32
2022-09-01T17:26:50.729Z,40.15
2022-09-01T17:28:56.873Z,40.06
2022-09-01T17:31:09.819Z,39.81
2022-09-01T17:33:23.176Z,40.37
2022-09-01T17:35:33.507Z,40.47
2022-09-01T17:37:44.631Z,40.69
2022-09-01T17:39:59.672Z,40.51
2022-09-01T17:42:10.461Z,40.62
2022-09-01T17:44:21.131Z,40.94
2022-09-01T17:46:34.965Z,40.94
2022-09-01T17:48:43.847Z,41.42
2022-09-01T17:50:59.554Z,41.31
2022-09-01T17:53:15.523Z,41.01
2022-09-01T17:55:32.931Z,41.13
2022-09-01T17:57:43.857Z,41.71
2022-09-01T17:59:54.794Z,41.59
2022-09-01T18:02:15.792Z,41.27
2022-09-01T18:04:43.331Z,41.89
2022-09-01T18:06:51.516Z,42.17
2022-09-01T18:08:58.099Z,41.81
2022-09-01T18:11:09.045Z,42.19
2022-09-01T18:13:30.716Z,42.36
2022-09-01T18:15:52.111Z,42.12
2022-09-01T18:18:07.275Z,42.06
2022-09-01T18:20:12.612Z,42.14
2022-09-01T18:22:19.910Z,42.27
2022-09-01T18:24:29.763Z,42.21
2022-09-01T18:26:39.201Z,42.29
2022-09-01T18:28:42.636Z,42.35
2022-09-01T18:30:54.025Z,42.93
2022-09-01T18:33:08.064Z,42.72
2022-09-01T18:35:25.536Z,43.41
2022-09-01T18:37:37.401Z,43.10
2022-09-01T18:39:51.734Z,42.83
2022-09-01T18:42:06.930Z,42.91
2022-09-01T18:44:23.628Z,43.00
2022-09-01T18:46:36.935Z,43.23
2022-09-01T18:48:53.869Z,43.18
2022-09-01T18:51:03.490Z,43.27
2022-09-01T18:53:27.999Z,43.57
2022-09-01T18:55:43.474Z,43.57
2022-09-01T18:57:52.266Z,43.54
2022-09-01T19:00:17.865Z,43.33
2022-09-01T19:02:37.061Z,43.84
2022-09-01T19:04:45.906Z,43.59
2022-09-01T19:06:59.786Z,43.65
2022-09-01T19:09:12.217Z,43.90
2022-09-01T19:11:23.936Z,43.95
2022-09-01T19:13:41.660Z,43.43
2022-09-01T19:15:56.731Z,43.85
2022-09-01T19:18:09.903Z,43.87
2022-09-01T19:20:18.569Z,44.06
2022-09-01T19:22:30.137Z,43.51
2022-09-01T19:24:44.155Z,43.87
2022-09-01T19:26:51.177Z,43.37
2022-09-01T19:28:59.318Z,44.09
2022-09-01T19:31:08.132Z,44.65
2022-09-01T19:33:15.575Z,44.23
2022-09-01T19:35:19.001Z,44.27
2022-09-01T19:37:22.449Z,44.00
2022-09-01T19:39:27.904Z,44.01
2022-09-01T19:41:35.368Z,44.26
2022-09-01T19:43:43.128Z,44.03
2022-09-01T19:45:59.982Z,43.86
2022-09-01T19:48:13.266Z,43.14
2022-09-01T19:50:22.496Z,43.21
2022-09-01T19:52:34.348Z,43.24
2022-09-01T19:54:45.711Z,43.79
2022-09-01T19:56:55.651Z,43.47
2022-09-01T19:59:09.488Z,43.88
2022-09-01T20:01:16.961Z,43.48
2022-09-01T20:03:26.434Z,44.01
2022-09-01T20:05:33.101Z,43.83
2022-09-01T20:07:40.630Z,43.81
2022-09-01T20:09:51.886Z,43.73
2022-09-01T20:11:59.931Z,44.08
2022-09-01T20:14:20.259Z,43.80
2022-09-01T20:16:31.025Z,43.99
2022-09-01T20:18:39.845Z,43.92
2022-09-01T20:20:59.250Z,44.22
2022-09-01T20:23:09.170Z,44.34
2022-09-01T20:25:15.292Z,44.71
2022-09-01T20:27:32.014Z,44.25
2022-09-01T20:29:44.556Z,44.17
2022-09-01T20:31:53.393Z,44.84
2022-09-01T20:34:03.363Z,45.08
2022-09-01T20:36:12.508Z,46.77
2022-09-01T20:38:39.532Z,46.54
2022-09-01T20:40:45.041Z,46.02
2022-09-01T20:42:58.248Z,45.34
2022-09-01T20:45:04.117Z,45.25
2022-09-01T20:47:08.523Z,44.93
2022-09-01T20:49:12.494Z,45.04
2022-09-01T20:51:31.363Z,44.68
2022-09-01T20:53:56.509Z,44.76
2022-09-01T20:56:08.674Z,44.65
2022-09-01T20:58:16.660Z,44.64
2022-09-01T21:00:22.550Z,44.52
2022-09-01T21:02:39.011Z,44.23
2022-09-01T21:04:50.805Z,44.65
2022-09-01T21:06:58.540Z,45.47
2022-09-01T21:09:08.330Z,45.97
2022-09-01T21:11:37.236Z,46.42
2022-09-01T21:13:54.200Z,46.70
2022-09-01T21:16:01.263Z,46.78
2022-09-01T21:18:29.924Z,46.98
2022-09-01T21:20:45.578Z,47.34
2022-09-01T21:22:49.899Z,47.38
2022-09-01T21:24:52.800Z,47.97
2022-09-01T21:26:57.031Z,47.67
2022-09-01T21:29:05.997Z,47.89
2022-09-01T21:31:09.165Z,49.14
2022-09-01T21:33:13.402Z,49.53
2022-09-01T21:35:19.473Z,50.58
2022-09-01T21:37:23.660Z,49.53
2022-09-01T21:39:26.582Z,50.54
2022-09-01T21:41:29.549Z,50.95
2022-09-01T21:43:36.683Z,52.02
2022-09-01T21:45:39.643Z,50.81
2022-09-01T21:47:43.772Z,50.70
2022-09-01T21:49:48.055Z,49.76
2022-09-01T21:51:51.004Z,49.72
2022-09-01T21:53:53.915Z,50.06
2022-09-01T21:55:56.811Z,50.42
2022-09-01T21:57:59.971Z,50.48
2022-09-01T22:00:03.427Z,50.23
2022-09-01T22:02:07.100Z,50.28
2022-09-01T22:04:10.841Z,49.86
2022-09-01T22:06:15.115Z,49.88
2022-09-01T22:08:18.574Z,49.77
2022-09-01T22:10:25.367Z,49.67
2022-09-01T22:12:28.245Z,49.84
2022-09-01T22:14:31.150Z,49.83
2022-09-01T22:16:34.197Z,50.00
2022-09-01T22:18:37.097Z,50.95
2022-09-01T22:20:40.466Z,51.10
2022-09-01T22:22:44.848Z,51.05
2022-09-01T22:24:48.899Z,50.37
2022-09-01T22:26:51.775Z,50.59
2022-09-01T22:28:56.062Z,50.39
2022-09-01T22:30:59.310Z,50.26
2022-09-01T22:33:03.752Z,50.40
2022-09-01T22:35:10.572Z,50.00
2022-09-01T22:37:13.397Z,50.37
2022-09-01T22:39:19.152Z,50.59
2022-09-01T22:41:27.257Z,51.09
2022-09-01T22:43:31.038Z,51.33
2022-09-01T22:45:33.921Z,51.20
2022-09-01T22:47:38.602Z,51.33
2022-09-01T22:49:41.595Z,51.07
2022-09-01T22:51:44.621Z,51.08
2022-09-01T22:53:47.910Z,51.22
2022-09-01T22:55:53.760Z,51.75
2022-09-01T22:57:56.601Z,52.55
2022-09-01T22:59:59.556Z,52.81
2022-09-01T23:02:02.676Z,52.77
2022-09-01T23:04:08.059Z,53.16
2022-09-01T23:06:14.676Z,53.01
2022-09-01T23:08:30.450Z,53.40
2022-09-01T23:10:33.464Z,53.25
2022-09-01T23:12:38.321Z,53.84
2022-09-01T23:14:41.226Z,54.06
2022-09-01T23:16:44.157Z,54.55
2022-09-01T23:18:48.449Z,53.98
2022-09-01T23:20:51.634Z,53.99
2022-09-01T23:22:54.719Z,53.96
2022-09-01T23:24:57.641Z,53.93
2022-09-01T23:27:00.487Z,53.65
2022-09-01T23:29:05.581Z,53.90
2022-09-01T23:31:09.220Z,54.21
2022-09-01T23:33:12.240Z,54.73
2022-09-01T23:35:16.379Z,54.75
2022-09-01T23:37:19.434Z,54.43
2022-09-01T23:39:22.303Z,54.58
2022-09-01T23:41:29.256Z,54.35
2022-09-01T23:43:32.112Z,54.54
2022-09-01T23:45:41.268Z,54.60
2022-09-01T23:47:44.201Z,54.89
2022-09-01T23:49:47.058Z,55.12
2022-09-01T23:51:50.292Z,54.82
2022-09-01T23:53:53.719Z,54.63
2022-09-01T23:55:58.567Z,54.72
2022-09-01T23:58:01.419Z,55.02
